Time;durP1;ratioP1;P1;durP2;ratioP2;P2;SDS_P1;SDS_P2;PMS_P1;PMS_P2;Temp;Humidity;BMP_temperature;BMP_pressure;BME280_temperature;BME280_humidity;BME280_pressure;Samples;Min_cycle;Max_cycle;Signal;HPM_P1;HPM_P2
2022/08/17 00:01:55;;;;;;;;;;;;;;;;;;5072532;28;19924;-62
2022/08/17 00:04:22;;;;;;;;;;;;;;;;;;5072594;28;20359;-61
2022/08/17 00:06:49;;;;;;;;;;;;;;;;;;5072662;28;19928;-62
2022/08/17 00:09:15;;;;;;;;;;;;;;;;;;5072309;28;19925;-62
2022/08/17 00:11:43;;;;;;;;;;;;;;;;;;5083626;28;19931;-64
2022/08/17 00:14:13;;;;;;;;;;;;;;;;;;5092502;28;19931;-62
2022/08/17 00:16:42;;;;;;;;;;;;;;;;;;5092860;28;19924;-63
2022/08/17 00:19:10;;;;;;;;;;;;;;;;;;5091492;28;19924;-63
2022/08/17 00:21:37;;;;;;;;;;;;;;;;;;5075488;28;19940;-64
2022/08/17 00:24:04;;;;;;;;;;;;;;;;;;5071975;28;19928;-63
2022/08/17 00:26:31;;;;;;;;;;;;;;;;;;5072212;28;20007;-63
2022/08/17 00:28:57;;;;;;;;;;;;;;;;;;5072018;28;19932;-64
2022/08/17 00:31:25;;;;;;;;;;;;;;;;;;5071912;28;19928;-63
2022/08/17 00:33:52;;;;;;;;;;;;;;;;;;5072385;28;19929;-63
2022/08/17 00:36:19;;;;;;;;;;;;;;;;;;5072129;28;19950;-63
2022/08/17 00:38:45;;;;;;;;;;;;;;;;;;5071802;28;19928;-63
2022/08/17 00:41:13;;;;;;;;;;;;;;;;;;5071700;28;20028;-63
2022/08/17 00:43:40;;;;;;;;;;;;;;;;;;5090680;28;19935;-63
2022/08/17 00:46:08;;;;;;;;;;;;;;;;;;5092054;28;19928;-62
2022/08/17 00:48:36;;;;;;;;;;;;;;;;;;5092213;28;19928;-62
2022/08/17 00:51:07;;;;;;;;;;;;;;;;;;5091671;28;19970;-63
2022/08/17 00:53:34;;;;;;;;;;;;;;;;;;5076073;28;19932;-62
2022/08/17 00:56:02;;;;;;;;;;;;;;;;;;5071707;28;19983;-63
2022/08/17 00:58:30;;;;;;;;;;;;;;;;;;5071961;28;19924;-62
2022/08/17 01:01:00;;;;;;;;;;;;;;;;;;5071878;28;19933;-63
2022/08/17 01:03:27;;;;;;;;;;;;;;;;;;5083229;28;19924;-63
2022/08/17 01:05:56;;;;;;;;;;;;;;;;;;5091936;28;19931;-63
2022/08/17 01:08:25;;;;;;;;;;;;;;;;;;5092072;28;19924;-63
2022/08/17 01:10:56;;;;;;;;;;;;;;;;;;5085064;28;20357;-64
2022/08/17 01:13:24;;;;;;;;;;;;;;;;;;5071636;28;19931;-62
2022/08/17 01:15:53;;;;;;;;;;;;;;;;;;5072113;28;20278;-62
2022/08/17 01:18:19;;;;;;;;;;;;;;;;;;5071299;28;19928;-64
2022/08/17 01:20:47;;;;;;;;;;;;;;;;;;5071516;28;20274;-64
2022/08/17 01:23:15;;;;;;;;;;;;;;;;;;5086870;28;19943;-63
2022/08/17 01:25:42;;;;;;;;;;;;;;;;;;5071593;28;19928;-63
2022/08/17 01:28:09;;;;;;;;;;;;;;;;;;5071393;28;19928;-63
2022/08/17 01:30:35;;;;;;;;;;;;;;;;;;5071367;28;19931;-65
2022/08/17 01:33:03;;;;;;;;;;;;;;;;;;5071390;28;20351;-64
2022/08/17 01:35:29;;;;;;;;;;;;;;;;;;5091531;28;19924;-64
2022/08/17 01:37:56;;;;;;;;;;;;;;;;;;5091675;28;19928;-64
2022/08/17 01:40:28;;;;;;;;;;;;;;;;;;5091607;28;19939;-61
2022/08/17 01:42:57;;;;;;;;;;;;;;;;;;5090383;28;20325;-62
2022/08/17 01:45:25;;;;;;;;;;;;;;;;;;5078317;28;19925;-63
2022/08/17 01:47:52;;;;;;;;;;;;;;;;;;5075335;28;20668;-61
2022/08/17 01:50:21;;;;;;;;;;;;;;;;;;5074871;28;19924;-63
2022/08/17 01:52:49;;;;;;;;;;;;;;;;;;5074768;28;19928;-63
2022/08/17 01:55:17;;;;;;;;;;;;;;;;;;5087063;28;19924;-63
2022/08/17 01:57:46;;;;;;;;;;;;;;;;;;5094947;28;19928;-64
2022/08/17 02:00:13;;;;;;;;;;;;;;;;;;5094028;28;19978;-64
2022/08/17 02:02:40;;;;;;;;;;;;;;;;;;5074356;28;19979;-64
2022/08/17 02:05:07;;;;;;;;;;;;;;;;;;5082330;28;20472;-64
2022/08/17 02:07:35;;;;;;;;;;;;;;;;;;5094912;28;19931;-65
2022/08/17 02:10:02;;;;;;;;;;;;;;;;;;5094756;28;19924;-63
2022/08/17 02:12:28;;;;;;;;;;;;;;;;;;5094753;28;19931;-64
2022/08/17 02:14:56;;;;;;;;;;;;;;;;;;5091162;28;19930;-63
2022/08/17 02:17:23;;;;;;;;;;;;;;;;;;5074651;28;20305;-66
2022/08/17 02:19:49;;;;;;;;;;;;;;;;;;5074164;28;19999;-63
2022/08/17 02:22:17;;;;;;;;;;;;;;;;;;5074289;28;19924;-64
2022/08/17 02:24:44;;;;;;;;;;;;;;;;;;5074136;28;19978;-66
2022/08/17 02:27:11;;;;;;;;;;;;;;;;;;5093404;28;20296;-65
2022/08/17 02:29:37;;;;;;;;;;;;;;;;;;5093953;28;19931;-65
2022/08/17 02:32:06;;;;;;;;;;;;;;;;;;5094256;28;19931;-65
2022/08/17 02:34:33;;;;;;;;;;;;;;;;;;5094273;28;19932;-64
2022/08/17 02:37:00;;;;;;;;;;;;;;;;;;5078599;28;19924;-64
2022/08/17 02:39:26;;;;;;;;;;;;;;;;;;5074164;28;20003;-63
2022/08/17 02:42:00;;;;;;;;;;;;;;;;;;5073805;28;19929;-64
2022/08/17 02:44:27;;;;;;;;;;;;;;;;;;5073506;28;20339;-66
2022/08/17 02:46:53;;;;;;;;;;;;;;;;;;5074346;28;20016;-65
2022/08/17 02:49:21;;;;;;;;;;;;;;;;;;5073589;28;20601;-64
2022/08/17 02:51:49;;;;;;;;;;;;;;;;;;5073179;28;20206;-64
2022/08/17 02:54:15;;;;;;;;;;;;;;;;;;5076080;28;19928;-64
2022/08/17 02:56:42;;;;;;;;;;;;;;;;;;5086736;28;20351;-64
2022/08/17 02:59:09;;;;;;;;;;;;;;;;;;5073386;28;20404;-66
2022/08/17 03:01:35;;;;;;;;;;;;;;;;;;5073396;28;19924;-64
2022/08/17 03:04:02;;;;;;;;;;;;;;;;;;5073970;28;19985;-63
2022/08/17 03:06:30;;;;;;;;;;;;;;;;;;5091249;28;19932;-63
2022/08/17 03:08:57;;;;;;;;;;;;;;;;;;5073790;28;20352;-64
2022/08/17 03:11:23;;;;;;;;;;;;;;;;;;5073081;28;19928;-64
2022/08/17 03:13:50;;;;;;;;;;;;;;;;;;5073099;28;19924;-64
2022/08/17 03:16:17;;;;;;;;;;;;;;;;;;5073261;28;19925;-64
2022/08/17 03:18:43;;;;;;;;;;;;;;;;;;5090061;28;19924;-64
2022/08/17 03:21:10;;;;;;;;;;;;;;;;;;5093838;28;19924;-63
2022/08/17 03:23:40;;;;;;;;;;;;;;;;;;5093124;28;19924;-63
2022/08/17 03:26:06;;;;;;;;;;;;;;;;;;5092949;28;19930;-64
2022/08/17 03:28:33;;;;;;;;;;;;;;;;;;5079427;28;20381;-63
2022/08/17 03:31:00;;;;;;;;;;;;;;;;;;5080565;28;19924;-62
2022/08/17 03:33:26;;;;;;;;;;;;;;;;;;5092865;28;20400;-63
2022/08/17 03:35:53;;;;;;;;;;;;;;;;;;5093006;28;20328;-64
2022/08/17 03:38:20;;;;;;;;;;;;;;;;;;5083946;28;20371;-63
2022/08/17 03:40:49;;;;;;;;;;;;;;;;;;5072351;28;19925;-64
2022/08/17 03:43:16;;;;;;;;;;;;;;;;;;5072630;28;20004;-64
2022/08/17 03:56:46;;;;;;;;;;;;;;;;;;5072531;28;19954;-63
2022/08/17 03:59:15;;;;;;;;;;;;;;;;;;5072650;28;19935;-63
2022/08/17 04:01:42;;;;;;;;;;;;;;;;;;5094503;22;20362;-80
2022/08/17 04:04:09;;;;;;;;;;;;;;;;;;5071114;28;19929;-80
2022/08/17 04:06:37;;;;;;;;;;;;;;;;;;5055115;28;19925;-80
2022/08/17 04:09:04;;;;;;;;;;;;;;;;;;5063112;28;19924;-79
2022/08/17 04:11:30;;;;;;;;;;;;;;;;;;5076014;28;19924;-80
2022/08/17 04:13:58;;;;;;;;;;;;;;;;;;5075310;28;20298;-80
2022/08/17 04:16:25;;;;;;;;;;;;;;;;;;5069564;28;19968;-79
2022/08/17 04:18:51;;;;;;;;;;;;;;;;;;5071771;28;20446;-81
2022/08/17 04:21:18;;;;;;;;;;;;;;;;;;5055760;28;20011;-78
2022/08/17 04:23:45;;;;;;;;;;;;;;;;;;5055749;28;19967;-80
2022/08/17 04:26:13;;;;;;;;;;;;;;;;;;5057439;28;19968;-79
2022/08/17 04:28:40;;;;;;;;;;;;;;;;;;5075890;28;19929;-79
2022/08/17 04:31:08;;;;;;;;;;;;;;;;;;5075521;28;20011;-79
2022/08/17 04:33:36;;;;;;;;;;;;;;;;;;5076091;28;19931;-79
2022/08/17 04:36:04;;;;;;;;;;;;;;;;;;5063396;28;20383;-78
2022/08/17 04:38:31;;;;;;;;;;;;;;;;;;5055314;28;19932;-79
2022/08/17 04:43:43;;;;;;;;;;;;;;;;;;5075498;28;19931;-79
2022/08/17 04:46:15;;;;;;;;;;;;;;;;;;5076032;28;20031;-79
2022/08/17 04:48:43;;;;;;;;;;;;;;;;;;5075365;28;20421;-79
2022/08/17 04:51:10;;;;;;;;;;;;;;;;;;5075606;28;19967;-79
2022/08/17 04:53:37;;;;;;;;;;;;;;;;;;5076099;28;20363;-78
2022/08/17 04:56:04;;;;;;;;;;;;;;;;;;5075722;28;19925;-79
2022/08/17 04:58:30;;;;;;;;;;;;;;;;;;5076146;28;19960;-80
2022/08/17 05:00:59;;;;;;;;;;;;;;;;;;5075576;28;19928;-80
2022/08/17 05:03:28;;;;;;;;;;;;;;;;;;5075147;28;19982;-80
2022/08/17 05:05:54;;;;;;;;;;;;;;;;;;5073477;28;20398;-80
2022/08/17 05:08:21;;;;;;;;;;;;;;;;;;5056263;28;19992;-79
2022/08/17 05:10:49;;;;;;;;;;;;;;;;;;5072761;28;19978;-79
2022/08/17 05:13:16;;;;;;;;;;;;;;;;;;5074245;28;19925;-81
2022/08/17 05:15:43;;;;;;;;;;;;;;;;;;5074467;28;19968;-79
2022/08/17 05:18:10;;;;;;;;;;;;;;;;;;5076880;28;20015;-78
2022/08/17 05:20:39;;;;;;;;;;;;;;;;;;5077989;28;19990;-80
2022/08/17 05:23:07;;;;;;;;;;;;;;;;;;5078429;28;19931;-79
2022/08/17 05:25:35;;;;;;;;;;;;;;;;;;5078114;28;19925;-80
2022/08/17 05:28:02;;;;;;;;;;;;;;;;;;5078657;28;19952;-80
2022/08/17 05:30:29;;;;;;;;;;;;;;;;;;5078310;28;19970;-80
2022/08/17 05:32:57;;;;;;;;;;;;;;;;;;5079265;28;19924;-80
2022/08/17 05:35:24;;;;;;;;;;;;;;;;;;5078852;28;19925;-80
2022/08/17 05:37:52;;;;;;;;;;;;;;;;;;5080365;28;20371;-76
2022/08/17 05:40:20;;;;;;;;;;;;;;;;;;5099857;28;19920;-79
2022/08/17 05:42:47;;;;;;;;;;;;;;;;;;5098639;28;19924;-77
2022/08/17 05:45:14;;;;;;;;;;;;;;;;;;5090384;28;19933;-80
2022/08/17 05:47:41;;;;;;;;;;;;;;;;;;5084734;28;19924;-79
2022/08/17 05:50:08;;;;;;;;;;;;;;;;;;5083387;28;20406;-79
2022/08/17 05:52:39;;;;;;;;;;;;;;;;;;5079823;28;19924;-79
2022/08/17 05:55:12;;;;;;;;;;;;;;;;;;5079043;28;19974;-78
2022/08/17 05:57:43;;;;;;;;;;;;;;;;;;5076256;28;20396;-80
2022/08/17 06:00:12;;;;;;;;;;;;;;;;;;5075081;28;19986;-79
2022/08/17 06:02:46;;;;;;;;;;;;;;;;;;5075014;28;19924;-78
2022/08/17 06:05:16;;;;;;;;;;;;;;;;;;5081802;28;19935;-80
2022/08/17 06:07:46;;;;;;;;;;;;;;;;;;5080741;28;19935;-78
2022/08/17 06:10:17;;;;;;;;;;;;;;;;;;5061933;28;19987;-80
2022/08/17 06:12:52;;;;;;;;;;;;;;;;;;5080199;28;19924;-79
2022/08/17 06:15:25;;;;;;;;;;;;;;;;;;5079994;28;20401;-79
2022/08/17 06:17:53;;;;;;;;;;;;;;;;;;5079682;28;19931;-79
2022/08/17 06:20:19;;;;;;;;;;;;;;;;;;5077759;28;20379;-80
2022/08/17 06:22:49;;;;;;;;;;;;;;;;;;5078145;28;19955;-80
2022/08/17 06:25:18;;;;;;;;;;;;;;;;;;5077781;28;19925;-83
2022/08/17 06:27:47;;;;;;;;;;;;;;;;;;5078155;28;19982;-80
2022/08/17 06:30:14;;;;;;;;;;;;;;;;;;5077058;28;20019;-80
2022/08/17 06:32:42;;;;;;;;;;;;;;;;;;5079476;28;19956;-79
2022/08/17 06:35:10;;;;;;;;;;;;;;;;;;5081506;28;19964;-79
2022/08/17 06:37:48;;;;;;;;;;;;;;;;;;5080786;28;19964;-79
2022/08/17 06:40:20;;;;;;;;;;;;;;;;;;5080382;28;19970;-80
2022/08/17 06:42:50;;;;;;;;;;;;;;;;;;5080696;28;19934;-80
2022/08/17 06:45:19;;;;;;;;;;;;;;;;;;5081132;28;19925;-80
2022/08/17 06:47:48;;;;;;;;;;;;;;;;;;5080574;28;19971;-80
2022/08/17 06:50:17;;;;;;;;;;;;;;;;;;5082546;28;19979;-81
2022/08/17 06:52:48;;;;;;;;;;;;;;;;;;5084944;28;19924;-81
2022/08/17 06:55:20;;;;;;;;;;;;;;;;;;5084831;28;19936;-81
2022/08/17 06:57:49;;;;;;;;;;;;;;;;;;5087546;28;19947;-81
2022/08/17 07:00:17;;;;;;;;;;;;;;;;;;5087471;28;19967;-81
2022/08/17 07:02:49;;;;;;;;;;;;;;;;;;5086816;28;19982;-81
2022/08/17 07:05:17;;;;;;;;;;;;;;;;;;5087800;28;19925;-78
2022/08/17 07:08:02;;;;;;;;;;;;;;;;;;5095918;28;19924;-80
2022/08/17 07:10:31;;;;;;;;;;;;;;;;;;5083038;28;19959;-80
2022/08/17 07:13:15;;;;;;;;;;;;;;;;;;5078927;28;19971;-81
2022/08/17 07:15:42;;;;;;;;;;;;;;;;;;5085874;28;19985;-80
2022/08/17 07:18:09;;;;;;;;;;;;;;;;;;5085886;28;19932;-80
2022/08/17 07:20:36;;;;;;;;;;;;;;;;;;5086854;28;19931;-80
2022/08/17 07:23:07;;;;;;;;;;;;;;;;;;5085251;28;19934;-77
2022/08/17 07:25:34;;;;;;;;;;;;;;;;;;5091329;28;19924;-79
2022/08/17 07:28:03;;;;;;;;;;;;;;;;;;5092152;28;19939;-80
2022/08/17 07:30:34;;;;;;;;;;;;;;;;;;5077641;28;19985;-77
2022/08/17 07:33:04;;;;;;;;;;;;;;;;;;5089988;28;19924;-81
2022/08/17 07:35:33;;;;;;;;;;;;;;;;;;5088230;28;19924;-83
2022/08/17 07:38:08;;;;;;;;;;;;;;;;;;5088132;28;20437;-77
2022/08/17 07:40:36;;;;;;;;;;;;;;;;;;5082509;28;19944;-83
2022/08/17 07:43:06;;;;;;;;;;;;;;;;;;5089170;28;19928;-82
2022/08/17 07:48:19;;;;;;;;;;;;;;;;;;5091096;28;20416;-84
2022/08/17 07:50:45;;;;;;;;;;;;;;;;;;5090202;28;19917;-79
2022/08/17 07:53:15;;;;;;;;;;;;;;;;;;5082649;28;20020;-83
2022/08/17 07:55:41;;;;;;;;;;;;;;;;;;5096761;28;19913;-85
2022/08/17 07:58:17;;;;;;;;;;;;;;;;;;5084646;28;20244;-78
2022/08/17 08:00:43;;;;;;;;;;;;;;;;;;5079898;28;20198;-79
2022/08/17 08:03:22;;;;;;;;;;;;;;;;;;5078606;28;19975;-78
2022/08/17 08:05:51;;;;;;;;;;;;;;;;;;5081746;28;19924;-79
2022/08/17 08:08:24;;;;;;;;;;;;;;;;;;5087638;28;19925;-82
2022/08/17 08:10:57;;;;;;;;;;;;;;;;;;5081769;28;19932;-78
2022/08/17 08:13:27;;;;;;;;;;;;;;;;;;5079402;28;19928;-78
2022/08/17 08:15:55;;;;;;;;;;;;;;;;;;5074217;28;19932;-76
2022/08/17 08:18:23;;;;;;;;;;;;;;;;;;5076256;28;19967;-77
2022/08/17 08:20:51;;;;;;;;;;;;;;;;;;5075527;28;19994;-78
2022/08/17 08:23:22;;;;;;;;;;;;;;;;;;5076970;28;19986;-81
2022/08/17 08:25:55;;;;;;;;;;;;;;;;;;5076612;28;19967;-82
2022/08/17 08:28:26;;;;;;;;;;;;;;;;;;5080335;28;19975;-77
2022/08/17 08:30:56;;;;;;;;;;;;;;;;;;5080589;28;19924;-81
2022/08/17 08:33:28;;;;;;;;;;;;;;;;;;5080639;28;19925;-82
2022/08/17 08:35:58;;;;;;;;;;;;;;;;;;5083376;28;19978;-80
2022/08/17 08:38:34;;;;;;;;;;;;;;;;;;5087027;28;20342;-80
2022/08/17 08:41:21;;;;;;;;;;;;;;;;;;5094126;28;19936;-78
2022/08/17 08:43:52;;;;;;;;;;;;;;;;;;5092112;28;19924;-79
2022/08/17 08:46:24;;;;;;;;;;;;;;;;;;5081321;28;19912;-78
2022/08/17 08:49:00;;;;;;;;;;;;;;;;;;5091993;28;19920;-79
2022/08/17 08:51:32;;;;;;;;;;;;;;;;;;5080280;28;19924;-77
2022/08/17 08:54:02;;;;;;;;;;;;;;;;;;5089625;28;19928;-80
2022/08/17 08:56:32;;;;;;;;;;;;;;;;;;5081316;28;19925;-77
2022/08/17 08:59:02;;;;;;;;;;;;;;;;;;5074522;28;19916;-81
2022/08/17 09:01:35;;;;;;;;;;;;;;;;;;5077549;28;20124;-80
2022/08/17 09:04:05;;;;;;;;;;;;;;;;;;5072285;28;20459;-84
2022/08/17 09:06:35;;;;;;;;;;;;;;;;;;5073826;28;19971;-79
2022/08/17 09:09:07;;;;;;;;;;;;;;;;;;5079500;28;19998;-81
2022/08/17 09:11:37;;;;;;;;;;;;;;;;;;5077184;28;19968;-83
2022/08/17 09:14:10;;;;;;;;;;;;;;;;;;5076695;28;19970;-86
2022/08/17 09:16:40;;;;;;;;;;;;;;;;;;5066829;28;19932;-80
2022/08/17 09:19:09;;;;;;;;;;;;;;;;;;5080628;28;19925;-81
2022/08/17 09:21:41;;;;;;;;;;;;;;;;;;5082657;28;19988;-78
2022/08/17 09:24:11;;;;;;;;;;;;;;;;;;5070524;28;19974;-81
2022/08/17 09:26:40;;;;;;;;;;;;;;;;;;5075601;28;20144;-80
2022/08/17 09:29:08;;;;;;;;;;;;;;;;;;5065963;28;19925;-80
2022/08/17 09:31:38;;;;;;;;;;;;;;;;;;5090812;28;20547;-79
2022/08/17 09:34:09;;;;;;;;;;;;;;;;;;5097843;28;19975;-82
2022/08/17 09:36:40;;;;;;;;;;;;;;;;;;5094599;28;19924;-81
2022/08/17 09:39:09;;;;;;;;;;;;;;;;;;5074404;28;19928;-79
2022/08/17 09:41:38;;;;;;;;;;;;;;;;;;5063297;28;19929;-81
2022/08/17 09:44:06;;;;;;;;;;;;;;;;;;5067247;28;19929;-81
2022/08/17 09:46:35;;;;;;;;;;;;;;;;;;5079906;28;19974;-81
2022/08/17 09:49:03;;;;;;;;;;;;;;;;;;5076841;28;20910;-81
2022/08/17 09:51:34;;;;;;;;;;;;;;;;;;5072336;28;19932;-80
2022/08/17 09:54:01;;;;;;;;;;;;;;;;;;5068433;28;19925;-81
2022/08/17 09:56:32;;;;;;;;;;;;;;;;;;5076615;28;19925;-82
2022/08/17 09:59:08;;;;;;;;;;;;;;;;;;5078775;28;19968;-81
2022/08/17 10:01:37;;;;;;;;;;;;;;;;;;5066504;28;20438;-82
2022/08/17 10:04:23;;;;;;;;;;;;;;;;;;5058767;28;19925;-81
2022/08/17 10:06:57;;;;;;;;;;;;;;;;;;5059187;28;19925;-80
2022/08/17 10:09:32;;;;;;;;;;;;;;;;;;5074497;28;19924;-81
2022/08/17 10:12:19;;;;;;;;;;;;;;;;;;5079872;28;19964;-81
2022/08/17 10:14:52;;;;;;;;;;;;;;;;;;5080110;28;19975;-81
2022/08/17 10:17:20;;;;;;;;;;;;;;;;;;5084946;28;19931;-81
2022/08/17 10:19:52;;;;;;;;;;;;;;;;;;5085304;28;19924;-81
2022/08/17 10:27:55;;;;;;;;;;;;;;;;;;5092483;28;19935;-80
2022/08/17 10:30:23;;;;;;;;;;;;;;;;;;5094824;28;19924;-80
2022/08/17 10:32:53;;;;;;;;;;;;;;;;;;5093799;28;19924;-80
2022/08/17 10:35:28;;;;;;;;;;;;;;;;;;5095320;28;19921;-80
2022/08/17 10:38:14;;;;;;;;;;;;;;;;;;5084730;28;20069;-82
2022/08/17 10:40:45;;;;;;;;;;;;;;;;;;5086262;28;19925;-80
2022/08/17 10:43:19;;;;;;;;;;;;;;;;;;5086175;28;19932;-80
2022/08/17 10:45:48;;;;;;;;;;;;;;;;;;5091336;22;19979;-73
2022/08/17 10:48:29;;;;;;;;;;;;;;;;;;5072248;28;19925;-74
2022/08/17 10:51:06;;;;;;;;;;;;;;;;;;5070784;28;19968;-73
2022/08/17 10:53:56;;;;;;;;;;;;;;;;;;5072388;28;19936;-73
2022/08/17 10:56:41;;;;;;;;;;;;;;;;;;5047658;28;19940;-74
2022/08/17 10:59:08;;;;;;;;;;;;;;;;;;5052530;28;19925;-74
2022/08/17 11:01:57;;;;;;;;;;;;;;;;;;5052630;28;20016;-75
2022/08/17 11:04:29;;;;;;;;;;;;;;;;;;5052922;28;19925;-75
2022/08/17 11:07:01;;;;;;;;;;;;;;;;;;5052221;28;19994;-75
2022/08/17 11:09:35;;;;;;;;;;;;;;;;;;5051488;28;19980;-75
2022/08/17 11:12:11;;;;;;;;;;;;;;;;;;5032184;28;20016;-75
2022/08/17 11:14:46;;;;;;;;;;;;;;;;;;5032075;28;19925;-75
2022/08/17 11:17:19;;;;;;;;;;;;;;;;;;5032405;28;19925;-75
2022/08/17 11:20:04;;;;;;;;;;;;;;;;;;5037921;28;19960;-75
2022/08/17 11:22:39;;;;;;;;;;;;;;;;;;5071485;28;19928;-77
2022/08/17 11:25:12;;;;;;;;;;;;;;;;;;5072632;28;20260;-73
2022/08/17 11:27:39;;;;;;;;;;;;;;;;;;5070393;28;20011;-75
2022/08/17 11:30:07;;;;;;;;;;;;;;;;;;5063268;28;19924;-75
2022/08/17 11:32:36;;;;;;;;;;;;;;;;;;5057416;28;19925;-76
2022/08/17 11:35:20;;;;;;;;;;;;;;;;;;5052182;28;19931;-74
2022/08/17 11:37:52;;;;;;;;;;;;;;;;;;5042011;28;19987;-74
2022/08/17 11:40:35;;;;;;;;;;;;;;;;;;5050548;28;19976;-75
2022/08/17 11:43:15;;;;;;;;;;;;;;;;;;5052278;28;19943;-74
2022/08/17 11:46:01;;;;;;;;;;;;;;;;;;5058585;28;19924;-76
2022/08/17 11:51:34;;;;;;;;;;;;;;;;;;5037174;28;20357;-76
2022/08/17 11:54:05;;;;;;;;;;;;;;;;;;5070830;28;19925;-77
2022/08/17 11:56:40;;;;;;;;;;;;;;;;;;5071751;28;19924;-76
2022/08/17 11:59:21;;;;;;;;;;;;;;;;;;5069356;28;20291;-75
2022/08/17 12:01:51;;;;;;;;;;;;;;;;;;5019514;28;19972;-76
2022/08/17 12:04:23;;;;;;;;;;;;;;;;;;5052989;28;20076;-75
2022/08/17 12:06:53;;;;;;;;;;;;;;;;;;5050452;28;19925;-77
2022/08/17 12:09:23;;;;;;;;;;;;;;;;;;5046845;28;19928;-77
2022/08/17 12:11:53;;;;;;;;;;;;;;;;;;5036621;28;20012;-77
2022/08/17 12:14:25;;;;;;;;;;;;;;;;;;5033273;28;19981;-76
2022/08/17 12:17:02;;;;;;;;;;;;;;;;;;5032509;28;19976;-75
2022/08/17 12:19:32;;;;;;;;;;;;;;;;;;5032062;28;19925;-75
2022/08/17 12:22:02;;;;;;;;;;;;;;;;;;5032306;28;19925;-75
2022/08/17 12:24:40;;;;;;;;;;;;;;;;;;5032273;28;19925;-76
2022/08/17 12:27:10;;;;;;;;;;;;;;;;;;5031964;28;19931;-76
2022/08/17 12:29:38;;;;;;;;;;;;;;;;;;5032043;28;20398;-76
2022/08/17 12:32:05;;;;;;;;;;;;;;;;;;5032194;28;19925;-77
2022/08/17 12:34:34;;;;;;;;;;;;;;;;;;5032142;28;19929;-76
2022/08/17 12:37:02;;;;;;;;;;;;;;;;;;5032183;28;19931;-76
2022/08/17 12:39:30;;;;;;;;;;;;;;;;;;5031682;28;19929;-73
2022/08/17 12:41:57;;;;;;;;;;;;;;;;;;5032316;28;20041;-74
2022/08/17 12:44:26;;;;;;;;;;;;;;;;;;5032040;28;19929;-73
2022/08/17 12:46:54;;;;;;;;;;;;;;;;;;5032327;28;19964;-74
2022/08/17 12:49:22;;;;;;;;;;;;;;;;;;5031999;28;19971;-74
2022/08/17 12:51:49;;;;;;;;;;;;;;;;;;5032179;28;19925;-75
2022/08/17 12:54:22;;;;;;;;;;;;;;;;;;5032208;28;19932;-74
2022/08/17 12:56:48;;;;;;;;;;;;;;;;;;5032639;28;20044;-74
2022/08/17 12:59:17;;;;;;;;;;;;;;;;;;5033936;28;19977;-75
2022/08/17 13:01:44;;;;;;;;;;;;;;;;;;5033750;28;19925;-74
2022/08/17 13:04:12;;;;;;;;;;;;;;;;;;5034093;28;19925;-74
2022/08/17 13:06:45;;;;;;;;;;;;;;;;;;5033051;28;19955;-75
2022/08/17 13:09:13;;;;;;;;;;;;;;;;;;5031725;28;19929;-75
2022/08/17 13:11:46;;;;;;;;;;;;;;;;;;5031644;28;19968;-74
2022/08/17 13:14:17;;;;;;;;;;;;;;;;;;5031798;28;20012;-74
2022/08/17 13:16:47;;;;;;;;;;;;;;;;;;5031842;28;20016;-74
2022/08/17 13:19:14;;;;;;;;;;;;;;;;;;5031725;28;19971;-74
2022/08/17 13:21:44;;;;;;;;;;;;;;;;;;5031504;28;19925;-74
2022/08/17 13:24:16;;;;;;;;;;;;;;;;;;5031924;28;19977;-74
2022/08/17 13:26:44;;;;;;;;;;;;;;;;;;5031427;28;20388;-75
2022/08/17 13:29:19;;;;;;;;;;;;;;;;;;5031531;28;19975;-76
2022/08/17 13:31:47;;;;;;;;;;;;;;;;;;5031476;28;19932;-75
2022/08/17 13:34:15;;;;;;;;;;;;;;;;;;5031515;28;19975;-75
2022/08/17 13:36:41;;;;;;;;;;;;;;;;;;5031781;28;19933;-75
2022/08/17 13:39:13;;;;;;;;;;;;;;;;;;5033680;28;19961;-76
2022/08/17 13:41:39;;;;;;;;;;;;;;;;;;5035296;28;19932;-76
2022/08/17 13:44:20;;;;;;;;;;;;;;;;;;5034726;28;19925;-75
2022/08/17 13:46:51;;;;;;;;;;;;;;;;;;5034854;28;19925;-77
2022/08/17 13:49:19;;;;;;;;;;;;;;;;;;5034650;28;19932;-75
2022/08/17 13:51:48;;;;;;;;;;;;;;;;;;5034687;28;19932;-75
2022/08/17 13:54:24;;;;;;;;;;;;;;;;;;5035687;28;20288;-78
2022/08/17 13:56:58;;;;;;;;;;;;;;;;;;5036328;28;19984;-77
2022/08/17 13:59:27;;;;;;;;;;;;;;;;;;5036395;28;19926;-77
2022/08/17 14:01:55;;;;;;;;;;;;;;;;;;5050421;28;19979;-77
2022/08/17 14:04:22;;;;;;;;;;;;;;;;;;5055889;28;19924;-77
2022/08/17 14:06:51;;;;;;;;;;;;;;;;;;5055466;28;19925;-77
2022/08/17 14:09:18;;;;;;;;;;;;;;;;;;5055782;28;20392;-78
2022/08/17 14:11:45;;;;;;;;;;;;;;;;;;5056689;28;20417;-77
2022/08/17 14:14:12;;;;;;;;;;;;;;;;;;5055760;28;20012;-77
2022/08/17 14:16:40;;;;;;;;;;;;;;;;;;5056010;28;20016;-78
2022/08/17 14:19:08;;;;;;;;;;;;;;;;;;5055652;28;19931;-77
2022/08/17 14:21:36;;;;;;;;;;;;;;;;;;5056086;28;20295;-78
2022/08/17 14:24:03;;;;;;;;;;;;;;;;;;5055958;28;20003;-77
2022/08/17 14:26:29;;;;;;;;;;;;;;;;;;5054980;28;20386;-77
2022/08/17 14:28:56;;;;;;;;;;;;;;;;;;5054679;28;19979;-75
2022/08/17 14:31:22;;;;;;;;;;;;;;;;;;5054337;28;19928;-74
2022/08/17 14:33:49;;;;;;;;;;;;;;;;;;5054112;28;19925;-76
2022/08/17 14:36:16;;;;;;;;;;;;;;;;;;5053921;28;19963;-76
2022/08/17 14:38:43;;;;;;;;;;;;;;;;;;5054181;28;19970;-76
2022/08/17 14:41:10;;;;;;;;;;;;;;;;;;5053498;28;19979;-75
2022/08/17 14:43:38;;;;;;;;;;;;;;;;;;5053901;28;20002;-75
2022/08/17 14:46:05;;;;;;;;;;;;;;;;;;5053583;28;19931;-75
2022/08/17 14:48:37;;;;;;;;;;;;;;;;;;5054128;28;19974;-77
2022/08/17 14:51:04;;;;;;;;;;;;;;;;;;5054590;28;20348;-76
2022/08/17 14:53:32;;;;;;;;;;;;;;;;;;5056038;28;20012;-76
2022/08/17 14:56:00;;;;;;;;;;;;;;;;;;5055612;28;19929;-75
2022/08/17 14:58:28;;;;;;;;;;;;;;;;;;5055390;28;19929;-75
2022/08/17 15:00:54;;;;;;;;;;;;;;;;;;5054609;28;19929;-75
2022/08/17 15:03:21;;;;;;;;;;;;;;;;;;5054538;28;19971;-75
2022/08/17 15:05:48;;;;;;;;;;;;;;;;;;5053895;28;19925;-77
2022/08/17 15:08:15;;;;;;;;;;;;;;;;;;5053672;28;19968;-76
2022/08/17 15:10:43;;;;;;;;;;;;;;;;;;5053118;28;19925;-75
2022/08/17 15:13:16;;;;;;;;;;;;;;;;;;5053585;28;19978;-76
2022/08/17 15:15:43;;;;;;;;;;;;;;;;;;5053382;28;20016;-76
2022/08/17 15:18:09;;;;;;;;;;;;;;;;;;5053390;28;20015;-76
2022/08/17 15:20:36;;;;;;;;;;;;;;;;;;5053272;28;20019;-76
2022/08/17 15:23:02;;;;;;;;;;;;;;;;;;5053372;28;19928;-77
2022/08/17 15:25:30;;;;;;;;;;;;;;;;;;5053012;28;20015;-75
2022/08/17 15:27:59;;;;;;;;;;;;;;;;;;5052957;28;19925;-75
2022/08/17 15:30:26;;;;;;;;;;;;;;;;;;5052429;28;19968;-75
2022/08/17 15:32:53;;;;;;;;;;;;;;;;;;5053044;28;19964;-75
2022/08/17 15:35:20;;;;;;;;;;;;;;;;;;5053083;28;20019;-75
2022/08/17 15:37:46;;;;;;;;;;;;;;;;;;5052671;28;20019;-75
2022/08/17 15:40:13;;;;;;;;;;;;;;;;;;5052305;28;20407;-75
2022/08/17 15:42:40;;;;;;;;;;;;;;;;;;5052675;28;19960;-75
2022/08/17 15:45:09;;;;;;;;;;;;;;;;;;5052717;28;20523;-74
2022/08/17 15:47:36;;;;;;;;;;;;;;;;;;5053002;28;20011;-75
2022/08/17 15:50:05;;;;;;;;;;;;;;;;;;5052406;28;19954;-75
2022/08/17 15:52:36;;;;;;;;;;;;;;;;;;5052553;28;20557;-75
2022/08/17 15:55:04;;;;;;;;;;;;;;;;;;5052818;28;19928;-75
2022/08/17 15:57:32;;;;;;;;;;;;;;;;;;5052479;28;20011;-75
2022/08/17 15:59:58;;;;;;;;;;;;;;;;;;5052149;28;19937;-76
2022/08/17 16:02:27;;;;;;;;;;;;;;;;;;5051657;28;20012;-75
2022/08/17 16:04:56;;;;;;;;;;;;;;;;;;5052375;28;20569;-76
2022/08/17 16:07:22;;;;;;;;;;;;;;;;;;5052462;28;19925;-77
2022/08/17 16:09:49;;;;;;;;;;;;;;;;;;5051846;28;19978;-74
2022/08/17 16:12:17;;;;;;;;;;;;;;;;;;5052213;28;19925;-75
2022/08/17 16:14:43;;;;;;;;;;;;;;;;;;5052200;28;20465;-74
2022/08/17 16:17:10;;;;;;;;;;;;;;;;;;5052046;28;19978;-75
2022/08/17 16:19:39;;;;;;;;;;;;;;;;;;5051893;28;20015;-75
2022/08/17 16:22:06;;;;;;;;;;;;;;;;;;5052033;28;20019;-75
2022/08/17 16:24:33;;;;;;;;;;;;;;;;;;5051945;28;20446;-77
2022/08/17 16:27:00;;;;;;;;;;;;;;;;;;5052114;28;20007;-76
2022/08/17 16:29:26;;;;;;;;;;;;;;;;;;5052542;28;19924;-75
2022/08/17 16:31:53;;;;;;;;;;;;;;;;;;5053146;28;19964;-76
2022/08/17 16:34:20;;;;;;;;;;;;;;;;;;5053240;28;20007;-76
2022/08/17 16:36:48;;;;;;;;;;;;;;;;;;5052830;28;19925;-74
2022/08/17 16:39:15;;;;;;;;;;;;;;;;;;5052932;28;19971;-74
2022/08/17 16:41:44;;;;;;;;;;;;;;;;;;5053147;28;19925;-76
2022/08/17 16:46:43;;;;;;;;;;;;;;;;;;5076032;28;19947;-81
2022/08/17 16:49:12;;;;;;;;;;;;;;;;;;5076830;28;20591;-80
2022/08/17 16:51:39;;;;;;;;;;;;;;;;;;5077948;28;19931;-81
2022/08/17 16:54:13;;;;;;;;;;;;;;;;;;5080829;28;19925;-82
2022/08/17 16:56:49;;;;;;;;;;;;;;;;;;5058718;28;19932;-81
2022/08/17 16:59:15;;;;;;;;;;;;;;;;;;5056976;28;19947;-79
2022/08/17 17:01:45;;;;;;;;;;;;;;;;;;5056090;28;19975;-82
2022/08/17 17:04:13;;;;;;;;;;;;;;;;;;5057891;28;19924;-81
2022/08/17 17:06:44;;;;;;;;;;;;;;;;;;5057939;28;19951;-81
2022/08/17 17:09:24;;;;;;;;;;;;;;;;;;5059242;28;19975;-82
2022/08/17 17:11:55;;;;;;;;;;;;;;;;;;5060139;28;19964;-80
2022/08/17 17:14:27;;;;;;;;;;;;;;;;;;5064228;28;19942;-80
2022/08/17 17:17:01;;;;;;;;;;;;;;;;;;5068794;28;19947;-81
2022/08/17 17:19:44;;;;;;;;;;;;;;;;;;5069644;28;19925;-80
2022/08/17 17:22:13;;;;;;;;;;;;;;;;;;5076375;28;19932;-80
2022/08/17 17:24:47;;;;;;;;;;;;;;;;;;5078244;28;19972;-81
2022/08/17 17:27:18;;;;;;;;;;;;;;;;;;5078099;28;19933;-79
2022/08/17 17:29:55;;;;;;;;;;;;;;;;;;5078149;28;19931;-78